Time;durP1;ratioP1;P1;durP2;ratioP2;P2;SDS_P1;SDS_P2;PMS_P1;PMS_P2;Temp;Humidity;BMP_temperature;BMP_pressure;BME280_temperature;BME280_humidity;BME280_pressure;Samples;Min_cycle;Max_cycle;Signal;HPM_P1;HPM_P2
2021/04/12 00:01:57;;;;;;;2.03;1.80;;;4.70;99.90;;;;;;5035110;28;21002;-77
2021/04/12 00:04:31;;;;;;;3.27;2.00;;;4.60;99.90;;;;;;5035162;28;20980;-78
2021/04/12 00:07:07;;;;;;;1.83;1.73;;;4.60;99.90;;;;;;5035326;28;20457;-78
2021/04/12 00:09:42;;;;;;;2.30;2.03;;;4.60;99.90;;;;;;5035394;28;20800;-78
2021/04/12 00:12:15;;;;;;;2.60;2.40;;;4.50;99.90;;;;;;5035251;28;20482;-78
2021/04/12 00:14:46;;;;;;;2.23;2.03;;;4.50;99.90;;;;;;5035469;28;20439;-78
2021/04/12 00:17:18;;;;;;;2.20;2.10;;;4.40;99.90;;;;;;5035269;28;20427;-78
2021/04/12 00:19:50;;;;;;;3.50;2.30;;;4.40;99.90;;;;;;5035276;28;20408;-78
2021/04/12 00:22:23;;;;;;;4.60;2.70;;;4.40;99.90;;;;;;5034849;28;21035;-78
2021/04/12 00:24:56;;;;;;;2.60;2.40;;;4.30;99.90;;;;;;5034804;28;20929;-78
2021/04/12 00:27:26;;;;;;;3.10;2.80;;;4.30;99.90;;;;;;5035220;28;20439;-78
2021/04/12 00:29:56;;;;;;;3.30;2.57;;;4.20;99.90;;;;;;5035007;28;20435;-78
2021/04/12 00:32:28;;;;;;;3.23;2.93;;;4.30;99.90;;;;;;5034760;28;20497;-78
2021/04/12 00:35:00;;;;;;;3.93;3.53;;;4.20;99.90;;;;;;5034866;28;20796;-82
2021/04/12 00:37:33;;;;;;;3.37;3.07;;;4.10;99.90;;;;;;5034470;28;20462;-82
2021/04/12 00:40:11;;;;;;;3.70;3.20;;;4.10;99.90;;;;;;5034829;28;20438;-80
2021/04/12 00:43:09;;;;;;;2.90;2.70;;;4.00;99.90;;;;;;5034461;28;20810;-80
2021/04/12 00:45:48;;;;;;;3.20;2.90;;;4.00;99.90;;;;;;5035189;28;20439;-80
2021/04/12 00:48:42;;;;;;;3.47;3.17;;;4.00;99.90;;;;;;5034412;28;20906;-80
2021/04/12 00:51:27;;;;;;;3.53;3.10;;;4.00;99.90;;;;;;5034199;28;20493;-80
2021/04/12 00:54:09;;;;;;;7.37;3.57;;;3.90;99.90;;;;;;5034374;28;20411;-80
2021/04/12 00:56:41;;;;;;;5.30;3.73;;;3.90;99.90;;;;;;5034661;28;20435;-81
2021/04/12 00:59:16;;;;;;;4.03;3.53;;;3.90;99.90;;;;;;5034913;28;20465;-81
2021/04/12 01:01:45;;;;;;;4.23;3.60;;;3.80;99.90;;;;;;5034212;28;20458;-81
2021/04/12 01:04:54;;;;;;;3.93;3.50;;;3.90;99.90;;;;;;5034034;28;20446;-80
2021/04/12 01:07:57;;;;;;;3.33;2.53;;;3.80;99.90;;;;;;5034053;28;20415;-80
2021/04/12 01:10:43;;;;;;;4.83;3.70;;;3.80;99.90;;;;;;5034120;28;20442;-80
2021/04/12 01:13:37;;;;;;;3.97;3.10;;;3.70;99.90;;;;;;5034140;28;20497;-80
2021/04/12 01:16:40;;;;;;;4.23;3.83;;;3.70;99.90;;;;;;5011680;28;20965;-80
2021/04/12 01:19:43;;;;;;;4.20;3.80;;;3.70;99.90;;;;;;5034133;28;20430;-80
2021/04/12 01:22:52;;;;;;;5.10;3.80;;;3.70;99.90;;;;;;5034054;28;20873;-81
2021/04/12 01:26:00;;;;;;;4.23;3.60;;;3.60;99.90;;;;;;5033723;28;20938;-80
2021/04/12 01:29:04;;;;;;;4.23;3.60;;;3.60;99.90;;;;;;4973817;28;20462;-80
2021/04/12 01:32:01;;;;;;;5.03;4.10;;;3.60;99.90;;;;;;5033436;28;20965;-81
2021/04/12 01:35:11;;;;;;;4.50;3.40;;;3.60;99.90;;;;;;5033872;28;20443;-80
2021/04/12 01:37:47;;;;;;;3.80;3.47;;;3.50;99.90;;;;;;5018039;28;20497;-81
2021/04/12 01:40:28;;;;;;;4.20;3.10;;;3.50;99.90;;;;;;5033863;28;20463;-81
2021/04/12 01:43:03;;;;;;;4.70;3.73;;;3.40;99.90;;;;;;5034087;28;20417;-81
2021/04/12 01:45:47;;;;;;;4.90;3.70;;;3.40;99.90;;;;;;5033337;28;20827;-81
2021/04/12 01:48:45;;;;;;;4.80;3.57;;;3.40;99.90;;;;;;5033241;28;20474;-81
2021/04/12 01:51:39;;;;;;;5.40;4.20;;;3.40;99.90;;;;;;5033166;28;20466;-81
2021/04/12 01:54:30;;;;;;;4.07;3.67;;;3.30;99.90;;;;;;5033605;28;20446;-82
2021/04/12 01:57:16;;;;;;;5.50;4.20;;;3.10;99.90;;;;;;5033527;28;20417;-76
2021/04/12 01:59:55;;;;;;;3.70;3.40;;;3.00;99.90;;;;;;5033185;28;20431;-76
2021/04/12 02:02:33;;;;;;;5.40;3.80;;;2.90;99.90;;;;;;5033760;28;20533;-76
2021/04/12 02:05:33;;;;;;;5.50;3.73;;;2.90;99.90;;;;;;5033420;28;20433;-76
2021/04/12 02:08:11;;;;;;;4.93;3.40;;;2.90;99.90;;;;;;5000589;28;20447;-76
2021/04/12 02:11:10;;;;;;;4.80;3.40;;;2.90;99.90;;;;;;5033349;28;20520;-77
2021/04/12 02:13:47;;;;;;;4.80;4.30;;;2.90;99.90;;;;;;5033477;28;20513;-77
2021/04/12 02:16:28;;;;;;;5.03;3.90;;;2.90;99.90;;;;;;5033253;28;20898;-77
2021/04/12 02:19:11;;;;;;;4.60;3.87;;;2.90;99.90;;;;;;5033417;28;20405;-81
2021/04/12 02:21:53;;;;;;;4.23;3.40;;;2.80;99.90;;;;;;5033118;28;20453;-81
2021/04/12 02:24:28;;;;;;;4.83;3.50;;;2.80;99.90;;;;;;5032956;28;20407;-81
2021/04/12 02:27:03;;;;;;;5.07;3.93;;;2.70;99.90;;;;;;5033231;28;20430;-82
2021/04/12 02:29:45;;;;;;;4.43;3.60;;;2.70;99.90;;;;;;5033440;28;20427;-76
2021/04/12 02:32:48;;;;;;;10.60;4.40;;;2.70;99.90;;;;;;5032672;28;21027;-79
2021/04/12 02:35:25;;;;;;;4.10;3.70;;;2.70;99.90;;;;;;5033114;28;20430;-79
2021/04/12 02:38:05;;;;;;;6.30;3.90;;;2.70;99.90;;;;;;5033028;28;20914;-79
2021/04/12 02:40:54;;;;;;;4.70;3.50;;;2.70;99.90;;;;;;5033194;28;20462;-80
2021/04/12 02:43:35;;;;;;;4.20;3.20;;;2.70;99.90;;;;;;5032811;28;20918;-81
2021/04/12 02:46:21;;;;;;;4.40;3.53;;;2.70;99.90;;;;;;5033013;28;20439;-74
2021/04/12 02:48:58;;;;;;;6.03;4.00;;;2.60;99.90;;;;;;5033232;28;20435;-75
2021/04/12 02:51:35;;;;;;;6.30;3.77;;;2.70;99.90;;;;;;5033094;28;20474;-75
2021/04/12 02:54:37;;;;;;;5.63;4.20;;;2.70;99.90;;;;;;5032667;28;20928;-75
2021/04/12 02:57:29;;;;;;;4.47;3.60;;;2.70;99.90;;;;;;4977111;28;20419;-75
2021/04/12 03:00:30;;;;;;;5.00;4.33;;;2.70;99.90;;;;;;5033325;28;20457;-75
2021/04/12 03:03:09;;;;;;;7.40;3.90;;;2.60;99.90;;;;;;5020897;28;20442;-75
2021/04/12 03:06:06;;;;;;;6.10;4.00;;;2.70;99.90;;;;;;5036345;28;20952;-79
2021/04/12 03:09:01;;;;;;;6.20;3.73;;;2.60;99.90;;;;;;5031298;28;20453;-79
2021/04/12 03:11:49;;;;;;;5.63;3.37;;;2.70;99.90;;;;;;5036388;28;20473;-79
2021/04/12 03:14:43;;;;;;;4.57;3.60;;;2.70;99.90;;;;;;5036214;28;20877;-79
2021/04/12 03:17:30;;;;;;;5.93;4.20;;;2.80;99.90;;;;;;5036300;28;20458;-79
2021/04/12 03:20:16;;;;;;;8.43;4.00;;;2.80;99.90;;;;;;5036586;28;20429;-79
2021/04/12 03:23:17;;;;;;;5.53;4.20;;;2.80;99.90;;;;;;5036256;28;20438;-79
2021/04/12 03:25:59;;;;;;;5.63;4.13;;;2.80;99.90;;;;;;5036271;28;20431;-79
2021/04/12 03:28:48;;;;;;;6.50;4.10;;;2.80;99.90;;;;;;5037129;28;20439;-79
2021/04/12 03:31:44;;;;;;;5.17;4.00;;;2.90;99.90;;;;;;5035669;28;20867;-79
2021/04/12 03:34:20;;;;;;;5.90;4.70;;;2.80;99.90;;;;;;5033487;28;20459;-79
2021/04/12 03:37:00;;;;;;;11.27;4.00;;;2.80;99.90;;;;;;5035731;28;20460;-79
2021/04/12 03:39:35;;;;;;;5.70;3.67;;;2.70;99.90;;;;;;5036006;28;20431;-79
2021/04/12 03:42:17;;;;;;;6.57;4.60;;;2.70;99.90;;;;;;5035823;28;20466;-80
2021/04/12 03:45:12;;;;;;;5.33;3.93;;;2.60;99.90;;;;;;5035888;28;20446;-79
2021/04/12 03:48:15;;;;;;;5.50;4.33;;;2.70;99.90;;;;;;4982246;28;20452;-79
2021/04/12 03:51:33;;;;;;;6.47;4.77;;;2.70;99.90;;;;;;5035424;28;21003;-79
2021/04/12 03:54:21;;;;;;;6.90;5.20;;;2.80;99.90;;;;;;4974686;28;20411;-79
2021/04/12 03:57:06;;;;;;;7.43;4.77;;;2.80;99.90;;;;;;4974485;28;20470;-79
2021/04/12 03:59:44;;;;;;;6.07;5.10;;;2.80;99.90;;;;;;5018035;28;20455;-79
2021/04/12 04:02:39;;;;;;;6.50;4.20;;;2.70;99.90;;;;;;5035212;28;20437;-79
2021/04/12 04:05:43;;;;;;;5.73;4.40;;;2.70;99.90;;;;;;5035257;28;20949;-79
2021/04/12 04:08:25;;;;;;;5.60;4.37;;;2.70;99.90;;;;;;5035446;28;20426;-76
2021/04/12 04:11:29;;;;;;;6.70;4.83;;;2.60;99.90;;;;;;5035064;28;20482;-76
2021/04/12 04:14:29;;;;;;;4.20;3.57;;;2.60;99.90;;;;;;5034648;28;20863;-76
2021/04/12 04:17:19;;;;;;;4.83;3.60;;;2.50;99.90;;;;;;5034934;28;20904;-76
2021/04/12 04:19:59;;;;;;;4.37;3.37;;;2.50;99.90;;;;;;5035236;28;20434;-78
2021/04/12 04:22:44;;;;;;;6.17;4.13;;;2.60;99.90;;;;;;5035098;28;20473;-79
2021/04/12 04:25:25;;;;;;;6.03;3.03;;;2.60;99.90;;;;;;5035120;28;20427;-79
2021/04/12 04:28:28;;;;;;;3.30;2.50;;;2.60;99.90;;;;;;5034786;28;20431;-79
2021/04/12 04:31:25;;;;;;;3.93;2.63;;;2.50;99.90;;;;;;5034903;28;20532;-79
2021/04/12 04:34:21;;;;;;;3.60;2.77;;;2.50;99.90;;;;;;5034855;28;20445;-79
2021/04/12 04:37:20;;;;;;;3.43;2.20;;;2.50;99.90;;;;;;5021975;28;20478;-79
2021/04/12 04:40:07;;;;;;;3.93;2.63;;;2.40;99.90;;;;;;5034907;28;20442;-79
2021/04/12 04:43:05;;;;;;;3.80;2.80;;;2.40;99.90;;;;;;5034755;28;20441;-80
2021/04/12 04:46:05;;;;;;;3.77;2.57;;;2.30;99.90;;;;;;5034465;28;20900;-80
2021/04/12 04:48:55;;;;;;;1.47;1.37;;;2.30;99.90;;;;;;5008954;28;20954;-79
2021/04/12 04:51:57;;;;;;;2.40;2.20;;;2.40;99.90;;;;;;5034248;28;21004;-79
2021/04/12 04:55:02;;;;;;;3.23;2.20;;;2.30;99.90;;;;;;5034604;28;20401;-80
2021/04/12 04:57:43;;;;;;;2.63;2.10;;;2.30;99.90;;;;;;5034205;28;20776;-79
2021/04/12 05:00:22;;;;;;;2.33;1.73;;;2.30;99.90;;;;;;5034204;28;20423;-79
2021/04/12 05:03:15;;;;;;;2.20;2.07;;;2.30;99.90;;;;;;5034404;28;20477;-79
2021/04/12 05:06:08;;;;;;;2.80;2.00;;;2.40;99.90;;;;;;5034070;28;20435;-79
2021/04/12 05:09:11;;;;;;;2.20;2.00;;;2.30;99.90;;;;;;5034006;28;20469;-80
2021/04/12 05:12:11;;;;;;;4.57;2.80;;;2.40;99.90;;;;;;5034152;28;20476;-79
2021/04/12 05:15:08;;;;;;;4.80;3.23;;;2.40;99.90;;;;;;5034174;28;20409;-79
2021/04/12 05:18:12;;;;;;;3.40;2.93;;;2.30;99.90;;;;;;5012553;28;20455;-81
2021/04/12 05:21:13;;;;;;;3.40;2.67;;;2.30;99.90;;;;;;5033990;28;20467;-80
2021/04/12 05:23:49;;;;;;;4.73;3.40;;;2.30;99.90;;;;;;5032840;28;20462;-81
2021/04/12 05:26:37;;;;;;;4.43;3.03;;;2.30;99.90;;;;;;5034005;28;20442;-80
2021/04/12 05:29:36;;;;;;;4.47;3.00;;;2.30;99.90;;;;;;5033563;28;20472;-81
2021/04/12 05:32:16;;;;;;;2.60;2.40;;;2.30;99.90;;;;;;5033866;28;20513;-80
2021/04/12 05:35:03;;;;;;;3.80;3.10;;;2.40;99.90;;;;;;5033527;28;20919;-80
2021/04/12 05:37:46;;;;;;;6.40;3.30;;;2.40;99.90;;;;;;5033388;28;20479;-79
2021/04/12 05:40:37;;;;;;;6.43;4.17;;;2.40;99.90;;;;;;5033390;28;20431;-79
2021/04/12 05:43:25;;;;;;;5.03;4.40;;;2.40;99.90;;;;;;5033392;28;20471;-79
2021/04/12 05:46:15;;;;;;;6.70;4.73;;;2.40;99.90;;;;;;5033693;28;20477;-79
2021/04/12 05:49:06;;;;;;;5.27;4.03;;;2.40;99.90;;;;;;5033665;28;20423;-80
2021/04/12 05:51:54;;;;;;;5.70;4.17;;;2.50;99.90;;;;;;5033252;28;20985;-79
2021/04/12 05:54:36;;;;;;;5.20;4.33;;;2.50;99.90;;;;;;5033636;28;20431;-79
2021/04/12 05:57:17;;;;;;;5.43;4.30;;;2.50;99.90;;;;;;5033662;28;20430;-79
2021/04/12 06:00:11;;;;;;;5.30;4.57;;;2.50;99.90;;;;;;5033337;28;20918;-79
2021/04/12 06:02:51;;;;;;;5.20;4.60;;;2.50;99.90;;;;;;5033363;28;20498;-79
2021/04/12 06:05:23;;;;;;;8.90;4.90;;;2.60;99.90;;;;;;5033402;28;20441;-79
2021/04/12 06:08:32;;;;;;;7.17;4.87;;;2.60;99.90;;;;;;5033397;28;20401;-80
2021/04/12 06:11:25;;;;;;;6.80;5.27;;;2.70;99.90;;;;;;5033527;28;20473;-79
2021/04/12 06:14:18;;;;;;;6.30;5.10;;;2.80;99.90;;;;;;5033348;28;20416;-79
2021/04/12 06:17:26;;;;;;;6.83;5.20;;;2.90;99.90;;;;;;5033555;28;20446;-79
2021/04/12 06:20:29;;;;;;;8.50;5.60;;;2.90;99.90;;;;;;5033230;28;20448;-79
2021/04/12 06:23:10;;;;;;;7.47;5.23;;;3.00;99.90;;;;;;5033149;28;20466;-79
2021/04/12 06:26:08;;;;;;;8.80;6.00;;;3.10;99.90;;;;;;5033294;28;20410;-80
2021/04/12 06:28:54;;;;;;;9.60;5.23;;;3.10;99.90;;;;;;5033226;28;20427;-79
2021/04/12 06:31:57;;;;;;;11.20;5.43;;;3.20;99.90;;;;;;5033111;28;20448;-79
2021/04/12 06:34:54;;;;;;;8.50;5.57;;;3.20;99.90;;;;;;5033145;28;20427;-79
2021/04/12 06:37:42;;;;;;;7.33;5.67;;;3.20;99.90;;;;;;5036707;28;20488;-79
2021/04/12 06:40:39;;;;;;;9.73;5.90;;;3.30;99.90;;;;;;5037106;28;20427;-79
2021/04/12 06:43:50;;;;;;;10.77;6.10;;;3.20;99.90;;;;;;5036629;28;20816;-79
2021/04/12 06:47:00;;;;;;;7.13;5.87;;;3.20;99.90;;;;;;4975775;28;20445;-79
2021/04/12 06:50:12;;;;;;;7.47;5.70;;;3.20;99.90;;;;;;5036912;28;20437;-79
2021/04/12 06:53:16;;;;;;;7.20;5.30;;;3.20;99.90;;;;;;5036864;28;20422;-80
2021/04/12 06:56:30;;;;;;;9.57;6.57;;;3.10;99.90;;;;;;5036805;28;20456;-80
2021/04/12 06:59:33;;;;;;;9.90;6.20;;;3.00;99.90;;;;;;5036718;28;20475;-80
2021/04/12 07:02:35;;;;;;;12.90;6.57;;;3.00;99.90;;;;;;5003190;28;20488;-80
2021/04/12 07:05:42;;;;;;;8.10;6.53;;;3.00;99.90;;;;;;5013548;28;20476;-80
2021/04/12 07:08:43;;;;;;;11.83;6.70;;;3.00;99.90;;;;;;5019254;28;20459;-82
2021/04/12 07:11:57;;;;;;;9.23;7.17;;;3.00;99.90;;;;;;5036441;28;20466;-81
2021/04/12 07:15:12;;;;;;;8.87;6.87;;;3.10;99.90;;;;;;5036396;28;20450;-81
2021/04/12 07:18:17;;;;;;;10.77;6.60;;;3.10;99.90;;;;;;5036336;28;20446;-81
2021/04/12 07:21:36;;;;;;;10.00;6.60;;;3.10;99.90;;;;;;5010757;28;20516;-81
2021/04/12 07:24:49;;;;;;;8.50;5.90;;;3.10;99.90;;;;;;4974985;28;20493;-81
2021/04/12 07:28:10;;;;;;;10.97;6.07;;;3.10;99.90;;;;;;4975062;28;20457;-81
2021/04/12 07:31:16;;;;;;;10.77;6.77;;;3.20;99.90;;;;;;5036080;28;20477;-81
2021/04/12 07:33:59;;;;;;;10.90;7.13;;;3.20;99.90;;;;;;5036131;28;20426;-81
2021/04/12 07:37:05;;;;;;;13.17;7.70;;;3.30;99.90;;;;;;5035702;28;20477;-82
2021/04/12 07:40:02;;;;;;;13.90;7.50;;;3.40;99.90;;;;;;5035978;28;20446;-82
2021/04/12 07:43:08;;;;;;;13.37;8.10;;;3.40;99.90;;;;;;5035780;28;20486;-82
2021/04/12 07:46:21;;;;;;;14.20;8.20;;;3.50;99.90;;;;;;5035805;28;20584;-82
2021/04/12 07:49:27;;;;;;;12.27;8.80;;;3.40;99.90;;;;;;5035365;28;20442;-82
2021/04/12 07:52:13;;;;;;;12.80;7.27;;;3.50;99.90;;;;;;5035533;28;20501;-82
2021/04/12 07:55:18;;;;;;;19.63;9.40;;;3.50;99.90;;;;;;5035556;28;20416;-77
2021/04/12 07:58:31;;;;;;;12.97;7.80;;;3.60;99.90;;;;;;5035675;28;20446;-77
2021/04/12 08:01:45;;;;;;;14.13;8.93;;;3.70;99.90;;;;;;5035439;28;20504;-77
2021/04/12 08:04:45;;;;;;;14.70;8.30;;;3.70;99.90;;;;;;5035364;28;20497;-76
2021/04/12 08:08:00;;;;;;;17.20;8.60;;;3.70;99.90;;;;;;5035510;28;20431;-76
2021/04/12 08:11:09;;;;;;;12.23;8.27;;;3.80;99.90;;;;;;5035350;28;20451;-77
2021/04/12 08:14:08;;;;;;;13.70;8.60;;;3.80;99.90;;;;;;5035185;28;20430;-77
2021/04/12 08:17:16;;;;;;;14.27;9.03;;;3.90;99.90;;;;;;5035469;28;20532;-82
2021/04/12 08:20:25;;;;;;;12.00;8.20;;;4.00;99.90;;;;;;5035303;28;20431;-82
2021/04/12 08:23:24;;;;;;;12.80;8.50;;;4.10;99.90;;;;;;5034856;28;20457;-82
2021/04/12 08:26:38;;;;;;;17.17;9.47;;;4.20;99.90;;;;;;5035142;28;20460;-82
2021/04/12 08:29:57;;;;;;;14.43;8.73;;;4.20;99.90;;;;;;5035077;28;20426;-82
2021/04/12 08:32:58;;;;;;;13.70;8.87;;;4.30;99.90;;;;;;5034933;28;20454;-83
2021/04/12 08:36:12;;;;;;;14.63;7.97;;;4.40;99.90;;;;;;5034447;28;20999;-82
2021/04/12 08:39:21;;;;;;;13.53;8.50;;;4.50;99.90;;;;;;5034827;28;20455;-82
2021/04/12 08:42:19;;;;;;;9.87;7.60;;;4.60;99.90;;;;;;5031949;28;20486;-82
2021/04/12 08:45:21;;;;;;;18.93;8.43;;;4.70;99.90;;;;;;5029653;28;20537;-83
2021/04/12 08:48:20;;;;;;;11.67;7.40;;;4.80;99.90;;;;;;5034669;28;20419;-83
2021/04/12 08:51:17;;;;;;;12.00;8.77;;;4.80;99.90;;;;;;5029536;28;20474;-83
2021/04/12 08:54:14;;;;;;;14.00;7.70;;;4.80;99.90;;;;;;5034390;28;20438;-83
2021/04/12 08:56:54;;;;;;;12.00;8.30;;;4.80;99.90;;;;;;5031925;28;20458;-83
2021/04/12 08:59:59;;;;;;;12.97;6.60;;;4.70;99.90;;;;;;5034124;28;20976;-83
2021/04/12 09:02:52;;;;;;;10.00;7.53;;;4.80;99.90;;;;;;5033841;28;20493;-84
2021/04/12 09:05:47;;;;;;;9.63;7.00;;;4.90;99.90;;;;;;5034373;28;20499;-83
2021/04/12 09:08:55;;;;;;;12.03;6.67;;;5.00;99.90;;;;;;5034329;28;20418;-84
2021/04/12 09:11:51;;;;;;;13.20;6.60;;;5.20;99.90;;;;;;5009246;28;20462;-84
2021/04/12 09:14:55;;;;;;;8.47;5.87;;;5.30;99.90;;;;;;5034114;28;20442;-84
2021/04/12 09:17:47;;;;;;;10.20;6.47;;;5.50;99.90;;;;;;5034111;28;20833;-84
2021/04/12 09:20:27;;;;;;;9.23;6.80;;;5.50;99.90;;;;;;5034235;28;20944;-84
2021/04/12 09:23:24;;;;;;;9.70;5.47;;;5.70;99.90;;;;;;5033888;28;20465;-84
2021/04/12 09:26:23;;;;;;;7.67;5.60;;;5.90;99.90;;;;;;5034165;28;20431;-84
2021/04/12 09:29:22;;;;;;;5.57;4.97;;;6.20;99.90;;;;;;5029783;28;20443;-84
2021/04/12 09:32:26;;;;;;;7.50;5.37;;;6.10;99.90;;;;;;5033909;28;21005;-83
2021/04/12 09:35:19;;;;;;;5.10;4.50;;;6.40;99.90;;;;;;5033646;28;20419;-84
2021/04/12 09:38:29;;;;;;;7.20;5.23;;;6.30;99.90;;;;;;5034035;28;20427;-85
2021/04/12 09:41:42;;;;;;;7.50;5.50;;;6.60;99.90;;;;;;5033486;28;20981;-84
2021/04/12 09:44:27;;;;;;;9.13;5.13;;;6.70;99.90;;;;;;4972799;28;20481;-85
2021/04/12 09:47:29;;;;;;;8.50;4.10;;;7.10;99.90;;;;;;4972941;28;20468;-84
2021/04/12 09:50:38;;;;;;;5.20;3.80;;;7.50;99.90;;;;;;5028047;28;20454;-83
2021/04/12 09:53:44;;;;;;;5.03;4.30;;;7.50;99.90;;;;;;5033799;28;20422;-87
2021/04/12 09:56:47;;;;;;;4.83;3.60;;;7.60;99.90;;;;;;5032948;28;20458;-86
2021/04/12 09:59:52;;;;;;;7.40;3.67;;;8.00;99.90;;;;;;5034264;28;20809;-86
2021/04/12 10:02:46;;;;;;;4.33;3.77;;;8.60;99.90;;;;;;5033075;28;20462;-86
2021/04/12 10:05:30;;;;;;;4.30;3.33;;;8.70;99.90;;;;;;5033865;28;20509;-86
2021/04/12 10:08:12;;;;;;;3.90;3.50;;;8.50;99.90;;;;;;5033922;28;20434;-86
2021/04/12 10:10:55;;;;;;;4.27;3.80;;;8.50;99.90;;;;;;5033419;28;20505;-86
2021/04/12 10:13:41;;;;;;;2.97;2.67;;;8.50;99.90;;;;;;5033821;28;20423;-86
2021/04/12 10:16:26;;;;;;;3.27;2.93;;;8.70;99.90;;;;;;5033714;28;20482;-85
2021/04/12 10:19:07;;;;;;;5.93;3.50;;;8.70;99.90;;;;;;5033436;28;20923;-84
2021/04/12 10:21:43;;;;;;;5.60;3.20;;;8.60;99.90;;;;;;5033614;28;20480;-86
2021/04/12 10:24:19;;;;;;;3.30;3.00;;;8.20;99.90;;;;;;5033864;28;20458;-86
2021/04/12 10:26:48;;;;;;;3.10;2.80;;;8.10;99.90;;;;;;5033797;28;20466;-86
2021/04/12 10:29:19;;;;;;;1.63;1.53;;;8.20;99.90;;;;;;5033866;28;20442;-89
2021/04/12 10:31:54;;;;;;;2.60;2.10;;;8.70;99.90;;;;;;5033775;28;20830;-87
2021/04/12 10:34:27;;;;;;;3.20;2.03;;;9.00;99.90;;;;;;5033693;28;20430;-86
2021/04/12 10:37:05;;;;;;;2.70;2.50;;;9.10;99.90;;;;;;5033295;28;20479;-86
2021/04/12 10:39:40;;;;;;;2.80;2.60;;;9.30;99.90;;;;;;5033613;28;20427;-86
2021/04/12 10:42:21;;;;;;;2.73;2.53;;;9.00;99.90;;;;;;5033604;28;20472;-86
2021/04/12 10:44:56;;;;;;;3.60;3.30;;;8.70;99.90;;;;;;5033639;28;20411;-86
2021/04/12 10:47:27;;;;;;;3.70;2.57;;;8.40;99.90;;;;;;5033533;28;20439;-86
2021/04/12 10:50:04;;;;;;;3.30;2.93;;;7.90;99.90;;;;;;5033476;28;20458;-86
2021/04/12 10:52:44;;;;;;;3.40;3.10;;;7.60;99.90;;;;;;5033505;28;20477;-86
2021/04/12 10:55:16;;;;;;;2.73;2.63;;;7.30;99.90;;;;;;5033465;28;20801;-86
2021/04/12 10:57:54;;;;;;;3.00;2.80;;;7.10;99.90;;;;;;5033141;28;20832;-86
2021/04/12 11:00:45;;;;;;;3.30;3.00;;;6.90;99.90;;;;;;5033271;28;20430;-86
2021/04/12 11:03:45;;;;;;;5.73;4.50;;;7.10;99.90;;;;;;5034356;28;20540;-86
2021/04/12 11:06:35;;;;;;;4.23;3.27;;;7.60;99.90;;;;;;5028806;28;20447;-87
2021/04/12 11:09:17;;;;;;;4.57;2.50;;;8.20;99.90;;;;;;5030930;28;20516;-87
2021/04/12 11:11:53;;;;;;;4.27;3.40;;;8.80;99.90;;;;;;5033532;28;20536;-87
2021/04/12 11:14:25;;;;;;;2.87;2.67;;;8.90;99.90;;;;;;5033454;28;20426;-87
2021/04/12 11:16:57;;;;;;;4.77;3.53;;;9.00;99.90;;;;;;5033488;28;20435;-87
2021/04/12 11:19:28;;;;;;;3.80;3.50;;;9.10;99.90;;;;;;5033365;28;20434;-87
2021/04/12 11:22:13;;;;;;;2.90;2.70;;;8.90;99.90;;;;;;5033375;28;20470;-87
2021/04/12 11:24:45;;;;;;;5.40;3.10;;;8.50;99.90;;;;;;5037504;28;20478;-87
2021/04/12 11:27:59;;;;;;;3.90;3.07;;;8.20;99.90;;;;;;5036835;28;20415;-87
2021/04/12 11:30:31;;;;;;;3.30;3.10;;;7.90;99.90;;;;;;5036840;28;20442;-86
2021/04/12 11:33:13;;;;;;;5.53;3.17;;;7.80;99.90;;;;;;5036841;28;20521;-86
2021/04/12 11:35:50;;;;;;;5.30;3.40;;;8.20;99.90;;;;;;5036458;28;20481;-87
2021/04/12 11:38:20;;;;;;;3.93;3.53;;;8.40;99.90;;;;;;5036628;28;20430;-87
2021/04/12 11:40:55;;;;;;;3.13;2.73;;;8.60;99.90;;;;;;5036874;28;21044;-86
2021/04/12 11:43:27;;;;;;;3.07;2.80;;;8.90;99.60;;;;;;5036078;28;20470;-87
2021/04/12 11:46:00;;;;;;;2.70;2.50;;;8.90;99.80;;;;;;5036472;28;20442;-87
2021/04/12 11:48:34;;;;;;;3.70;2.80;;;8.70;97.40;;;;;;5036411;28;20951;-86
2021/04/12 11:51:05;;;;;;;3.20;2.90;;;8.90;99.60;;;;;;5036332;28;20462;-86
2021/04/12 11:53:46;;;;;;;4.20;3.23;;;9.00;99.60;;;;;;5036241;28;20438;-86
2021/04/12 11:56:25;;;;;;;4.07;3.47;;;9.00;99.40;;;;;;5036180;28;20434;-87
2021/04/12 11:58:57;;;;;;;3.80;3.20;;;8.90;98.90;;;;;;5036237;28;20477;-86
2021/04/12 12:01:31;;;;;;;3.93;3.33;;;8.80;97.20;;;;;;5035958;28;20481;-86
2021/04/12 12:04:08;;;;;;;5.63;3.10;;;8.50;98.20;;;;;;5036005;28;20467;-86
2021/04/12 12:06:42;;;;;;;4.23;3.70;;;8.20;99.90;;;;;;5035840;28;20925;-86
2021/04/12 12:09:30;;;;;;;5.10;3.40;;;8.10;99.90;;;;;;5036060;28;20435;-86
2021/04/12 12:12:06;;;;;;;3.97;3.67;;;8.00;99.90;;;;;;5035899;28;20534;-86
2021/04/12 12:14:36;;;;;;;4.10;3.70;;;8.20;99.90;;;;;;5036027;28;20418;-86
2021/04/12 12:17:08;;;;;;;3.37;3.07;;;8.70;99.90;;;;;;5035647;28;20426;-86
2021/04/12 12:19:44;;;;;;;3.53;2.97;;;9.00;98.80;;;;;;5035679;28;20443;-86
2021/04/12 12:22:25;;;;;;;4.57;2.83;;;9.10;97.40;;;;;;5035593;28;20455;-86
2021/04/12 12:25:02;;;;;;;3.10;2.90;;;9.10;97.00;;;;;;5035481;28;20465;-86
2021/04/12 12:27:33;;;;;;;2.70;2.30;;;8.80;97.50;;;;;;5035578;28;20474;-87
2021/04/12 12:30:08;;;;;;;2.10;1.97;;;8.60;95.20;;;;;;5035351;28;20435;-86
2021/04/12 12:33:08;;;;;;;2.43;2.23;;;8.50;94.90;;;;;;5035177;28;20470;-87
2021/04/12 12:35:42;;;;;;;2.57;2.37;;;8.10;95.80;;;;;;5035066;28;20952;-85
2021/04/12 12:38:44;;;;;;;2.60;2.20;;;8.00;96.70;;;;;;5035408;28;20480;-86
2021/04/12 12:41:17;;;;;;;3.43;2.93;;;7.90;95.90;;;;;;5024872;28;20557;-85
2021/04/12 12:43:44;;;;;;;2.47;2.37;;;7.90;96.40;;;;;;5034871;28;20458;-85
2021/04/12 12:46:15;;;;;;;4.43;2.97;;;8.00;97.10;;;;;;5035425;28;20503;-86
2021/04/12 12:48:50;;;;;;;3.27;2.70;;;8.10;95.30;;;;;;5034926;28;20426;-84
2021/04/12 12:51:19;;;;;;;7.40;2.90;;;8.20;95.80;;;;;;5035479;28;20867;-85
2021/04/12 12:53:49;;;;;;;3.50;3.27;;;8.40;96.20;;;;;;5034826;28;20431;-85
2021/04/12 12:56:22;;;;;;;2.83;2.63;;;8.60;95.80;;;;;;5034533;28;20427;-85
2021/04/12 12:58:59;;;;;;;2.50;2.30;;;8.70;97.20;;;;;;5034483;28;20411;-85
2021/04/12 13:01:28;;;;;;;2.23;2.03;;;8.80;95.10;;;;;;5034711;28;20485;-85
2021/04/12 13:04:05;;;;;;;2.10;2.00;;;8.90;94.10;;;;;;5034451;28;20833;-85
2021/04/12 13:06:32;;;;;;;4.50;1.77;;;8.80;93.60;;;;;;5034233;28;20435;-85
2021/04/12 13:09:01;;;;;;;2.40;1.60;;;8.70;94.60;;;;;;5034517;28;20418;-85
2021/04/12 13:11:40;;;;;;;2.30;1.60;;;8.60;94.00;;;;;;5034383;28;20549;-85
2021/04/12 13:14:18;;;;;;;2.23;1.63;;;8.40;93.40;;;;;;5034685;28;20431;-85
2021/04/12 13:16:45;;;;;;;2.40;1.57;;;8.40;94.30;;;;;;5034185;28;20418;-85
2021/04/12 13:19:14;;;;;;;2.43;1.53;;;8.60;92.90;;;;;;5034396;28;20802;-85
2021/04/12 13:21:44;;;;;;;5.00;1.60;;;8.60;91.80;;;;;;5034048;28;20457;-85
2021/04/12 13:24:19;;;;;;;3.00;1.90;;;8.80;90.20;;;;;;5034359;28;20837;-85
2021/04/12 13:26:53;;;;;;;1.60;1.50;;;8.90;90.40;;;;;;5034237;28;20782;-85
2021/04/12 13:29:22;;;;;;;1.73;1.40;;;8.90;90.70;;;;;;5034134;28;20427;-85
2021/04/12 13:31:51;;;;;;;2.13;2.03;;;8.90;88.10;;;;;;5033597;28;20883;-85
2021/04/12 13:34:22;;;;;;;2.07;1.97;;;8.80;84.40;;;;;;5033676;28;20431;-84
2021/04/12 13:36:53;;;;;;;2.60;1.87;;;8.70;82.90;;;;;;5033604;28;20577;-85
2021/04/12 13:39:39;;;;;;;1.83;1.73;;;8.70;83.20;;;;;;5033659;28;20411;-85
2021/04/12 13:42:18;;;;;;;1.73;1.50;;;8.60;82.90;;;;;;5033556;28;21010;-85
2021/04/12 13:44:49;;;;;;;1.93;1.80;;;8.60;83.30;;;;;;5033132;28;20482;-85
2021/04/12 13:47:20;;;;;;;1.53;1.43;;;8.70;82.60;;;;;;5033898;28;20431;-85
2021/04/12 13:49:51;;;;;;;2.93;1.70;;;8.80;82.10;;;;;;5033623;28;20423;-84
2021/04/12 13:52:21;;;;;;;2.20;1.83;;;8.80;82.60;;;;;;5033772;28;20806;-86
2021/04/12 13:54:54;;;;;;;1.70;1.60;;;8.80;81.00;;;;;;5033831;28;20439;-85
2021/04/12 13:57:33;;;;;;;1.80;1.70;;;8.80;82.50;;;;;;5033879;28;20420;-85
2021/04/12 14:00:08;;;;;;;1.93;1.70;;;8.70;81.20;;;;;;5033922;28;20412;-86
2021/04/12 14:02:39;;;;;;;3.63;1.87;;;8.50;81.00;;;;;;5033515;28;20467;-86
2021/04/12 14:05:12;;;;;;;1.40;1.30;;;8.50;82.80;;;;;;5034267;28;20435;-85
2021/04/12 14:07:43;;;;;;;1.70;1.60;;;8.40;81.30;;;;;;5034606;28;20435;-86
2021/04/12 14:10:20;;;;;;;1.50;1.40;;;8.50;84.40;;;;;;5033988;28;20466;-86
2021/04/12 14:12:57;;;;;;;1.70;1.60;;;8.50;85.90;;;;;;5033667;28;20512;-86
2021/04/12 14:15:30;;;;;;;1.80;1.70;;;8.50;84.80;;;;;;5033722;28;20431;-86
2021/04/12 14:18:02;;;;;;;1.83;1.70;;;8.60;85.80;;;;;;5033376;28;20435;-86
2021/04/12 14:20:35;;;;;;;1.97;1.63;;;8.50;83.10;;;;;;5033126;28;20438;-86
2021/04/12 14:23:07;;;;;;;2.23;1.77;;;8.60;83.20;;;;;;5033455;28;20459;-86
2021/04/12 14:25:37;;;;;;;1.50;1.40;;;8.50;83.80;;;;;;5033539;28;20453;-85
2021/04/12 14:28:09;;;;;;;1.90;1.80;;;8.40;83.80;;;;;;5033422;28;20438;-86
2021/04/12 14:30:42;;;;;;;2.20;2.10;;;8.50;87.20;;;;;;5032920;28;20467;-86
2021/04/12 14:33:10;;;;;;;2.10;1.60;;;8.50;85.30;;;;;;5033423;28;20427;-86
2021/04/12 14:35:40;;;;;;;1.57;1.47;;;8.40;84.40;;;;;;5033144;28;20532;-85
2021/04/12 14:38:09;;;;;;;1.40;1.27;;;8.40;83.70;;;;;;5033355;28;20411;-85
2021/04/12 14:40:37;;;;;;;1.07;0.97;;;8.40;83.10;;;;;;5033250;28;20475;-85